Anchorville, MI (48004)

3:21 PM EDT on September 04, 2015 (GMT -0400)
Swan Creek | | Change Station
CLOSE
Current Station
Personal Weather Station
Location: Michigan, MI
Elevation: 584 ft
Nearby Weather Stations

Elev 584 ft 42.68 °N, 82.65 °W | Updated 6 minutes ago

Mostly Cloudy
Mostly Cloudy
80.3 °F
Feels Like 84 °F
N
0.0
Wind Variable Wind from ESE
Gusts 3.0 mph

Today
High -- | Low -- °F
--% Chance of Precip.
Yesterday
High -- | Low -- °F
Precip. -- in
6:58 AM 8:00 PM
Waning Gibbous, 57% visible
Pressure 30.04 in
Visibility 10.0 miles
Clouds Mostly Cloudy 2500 ft
Heat Index 84 °F
Dew Point 72 °F
Humidity 75%
Rainfall 0.07 in
Snow Depth Not available.
UV 4 out of 12
Pollen 9.40 out of 12
Air Quality Not available.
Flu Activity Not available.
METAR KMTC 041855Z 12008KT 10SM BKN025 25/21 A3002 RMK BKN025 V OVC SLP172 T02540210
Pressure 30.04 in
Visibility 10.0 miles
Clouds Mostly Cloudy 2500 ft
Heat Index 84 °F
Dew Point 72 °F
Humidity 75%
Rainfall 0.07 in
Snow Depth Not available.
UV 4 out of 12
Pollen 9.40 out of 12
Air Quality Not available.
Flu Activity Not available.
METAR KMTC 041855Z 12008KT 10SM BKN025 25/21 A3002 RMK BKN025 V OVC SLP172 T02540210

10-Day Weather Forecast

×

Almanac

Astronomy

Sep. 04, 2015 Rise Set
Actual Time
Civil Twilight
Nautical Twilight
Astronomical Twilight
Moon
Length of Visible Light
Length of Day
Tomorrow will be .
, % of the Moon is Illuminated

Today's Extremes

State Highs State Lows

Community

WunderPhotos

Upload Photos

1,852,271 photos uploaded!

WunderBlogs® & News

Nearby

Air Quality

  Air Quality AQ Index Pollutant
Not available.

Snow Depth

Station Depth Elevation

Earthquake Activity

City Distance Mag. Time & Date
Minimum magnitude displayed is 2.5.

Coastal Water Temperatures

Place Temperature

Stations

Nearby Weather Stations

Station Location Temp. Windchill Dew Point Humidity Wind Precip. Elev Updated Type